Time;durP1;ratioP1;P1;durP2;ratioP2;P2;SDS_P1;SDS_P2;PMS_P1;PMS_P2;Temp;Humidity;BMP_temperature;BMP_pressure;BME280_temperature;BME280_humidity;BME280_pressure;Samples;Min_cycle;Max_cycle;Signal;HPM_P1;HPM_P2
2021/04/30 00:02:14;;;;;;;511.95;308.48;;;;;;;;;;5043804;28;20029;-86
2021/04/30 00:04:40;;;;;;;509.63;302.38;;;;;;;;;;5026836;28;20025;-84
2021/04/30 00:07:07;;;;;;;512.08;307.58;;;;;;;;;;5028452;28;20032;-85
2021/04/30 00:09:33;;;;;;;510.63;298.60;;;;;;;;;;5024214;28;20075;-84
2021/04/30 00:12:00;;;;;;;513.20;307.05;;;;;;;;;;5026508;28;20033;-85
2021/04/30 00:14:26;;;;;;;510.65;304.08;;;;;;;;;;5022462;28;20111;-85
2021/04/30 00:16:52;;;;;;;512.72;306.50;;;;;;;;;;5026172;28;20599;-84
2021/04/30 00:19:22;;;;;;;515.30;307.20;;;;;;;;;;5024526;28;20487;-84
2021/04/30 00:21:48;;;;;;;522.85;315.13;;;;;;;;;;5026237;28;20163;-84
2021/04/30 00:24:15;;;;;;;513.80;315.27;;;;;;;;;;5042815;28;20604;-84
2021/04/30 00:26:41;;;;;;;522.65;321.35;;;;;;;;;;5024726;28;20052;-85
2021/04/30 00:29:08;;;;;;;507.77;309.65;;;;;;;;;;5024905;28;20036;-84
2021/04/30 00:31:35;;;;;;;514.50;312.20;;;;;;;;;;5022203;28;20123;-84
2021/04/30 00:34:03;;;;;;;517.53;317.63;;;;;;;;;;5024990;28;20032;-83
2021/04/30 00:36:29;;;;;;;513.63;321.35;;;;;;;;;;5043926;28;20481;-83
2021/04/30 00:38:56;;;;;;;519.35;317.40;;;;;;;;;;5026551;28;20028;-84
2021/04/30 00:41:23;;;;;;;520.35;322.10;;;;;;;;;;5026344;28;20029;-83
2021/04/30 00:43:49;;;;;;;512.08;317.73;;;;;;;;;;5030849;28;20060;-84
2021/04/30 00:46:15;;;;;;;514.28;320.75;;;;;;;;;;5027379;28;20036;-83
2021/04/30 00:48:41;;;;;;;517.13;320.92;;;;;;;;;;5027653;28;20104;-83
2021/04/30 00:51:07;;;;;;;515.85;317.20;;;;;;;;;;5025923;28;20032;-83
2021/04/30 00:53:33;;;;;;;512.10;320.90;;;;;;;;;;5027333;28;20028;-83
2021/04/30 00:55:59;;;;;;;513.15;324.42;;;;;;;;;;5027991;28;20144;-84
2021/04/30 00:58:25;;;;;;;506.98;316.88;;;;;;;;;;5029765;28;20104;-83
2021/04/30 01:00:52;;;;;;;502.73;314.30;;;;;;;;;;5028795;28;20573;-83
2021/04/30 01:03:18;;;;;;;507.02;316.67;;;;;;;;;;5027605;28;20484;-84
2021/04/30 01:05:44;;;;;;;508.38;318.73;;;;;;;;;;5024942;28;20036;-83
2021/04/30 01:08:10;;;;;;;511.55;325.52;;;;;;;;;;5026349;28;20399;-83
2021/04/30 01:10:36;;;;;;;514.78;319.55;;;;;;;;;;5046363;28;20021;-83
2021/04/30 01:13:03;;;;;;;515.17;318.67;;;;;;;;;;5045208;28;20017;-83
2021/04/30 01:15:29;;;;;;;518.17;323.08;;;;;;;;;;5025589;28;20022;-83
2021/04/30 01:17:55;;;;;;;511.80;321.35;;;;;;;;;;5029766;28;20025;-83
2021/04/30 01:20:22;;;;;;;507.83;316.88;;;;;;;;;;5027216;28;20158;-83
2021/04/30 01:22:49;;;;;;;511.77;322.92;;;;;;;;;;5024178;28;20120;-83
2021/04/30 01:25:17;;;;;;;517.92;325.25;;;;;;;;;;5025234;28;20036;-83
2021/04/30 01:27:43;;;;;;;513.42;324.83;;;;;;;;;;5030239;28;20028;-83
2021/04/30 01:30:11;;;;;;;520.50;332.20;;;;;;;;;;5027980;28;20033;-83
2021/04/30 01:32:37;;;;;;;507.08;317.75;;;;;;;;;;5026919;28;20486;-83
2021/04/30 01:35:04;;;;;;;510.35;319.10;;;;;;;;;;5025590;28;20293;-83
2021/04/30 01:37:30;;;;;;;511.35;312.30;;;;;;;;;;5045144;28;20461;-83
2021/04/30 01:39:56;;;;;;;503.58;310.23;;;;;;;;;;5023314;28;20116;-82
2021/04/30 01:42:22;;;;;;;502.52;309.05;;;;;;;;;;5047033;28;20120;-82
2021/04/30 01:44:49;;;;;;;511.67;316.25;;;;;;;;;;5023110;28;20028;-82
2021/04/30 01:47:15;;;;;;;510.88;319.15;;;;;;;;;;5024809;28;20135;-82
2021/04/30 01:49:41;;;;;;;509.63;313.70;;;;;;;;;;5026572;28;20400;-82
2021/04/30 01:52:07;;;;;;;501.08;307.30;;;;;;;;;;5045865;28;20039;-83
2021/04/30 01:54:33;;;;;;;507.65;320.00;;;;;;;;;;5024633;28;20021;-83
2021/04/30 01:56:59;;;;;;;502.67;311.25;;;;;;;;;;5027138;28;20020;-82
2021/04/30 01:59:25;;;;;;;504.23;318.80;;;;;;;;;;5045580;28;20400;-82
2021/04/30 02:01:51;;;;;;;503.98;310.80;;;;;;;;;;5021814;28;20045;-82
2021/04/30 02:04:17;;;;;;;510.33;317.17;;;;;;;;;;5023036;28;20025;-83
2021/04/30 02:06:46;;;;;;;514.22;317.92;;;;;;;;;;5044085;28;20078;-82
2021/04/30 02:09:12;;;;;;;502.00;314.02;;;;;;;;;;5025979;28;20032;-82
2021/04/30 02:11:39;;;;;;;502.80;311.00;;;;;;;;;;5027909;28;20033;-82
2021/04/30 02:14:06;;;;;;;498.42;306.27;;;;;;;;;;5047292;28;20139;-82
2021/04/30 02:16:33;;;;;;;493.85;305.33;;;;;;;;;;5025259;28;20025;-83
2021/04/30 02:18:59;;;;;;;507.30;321.15;;;;;;;;;;5028573;28;20023;-80
2021/04/30 02:21:25;;;;;;;502.65;311.35;;;;;;;;;;5024844;28;20029;-83
2021/04/30 02:23:51;;;;;;;508.45;320.25;;;;;;;;;;5023506;28;20120;-82
2021/04/30 02:26:17;;;;;;;501.77;314.10;;;;;;;;;;5043122;28;20412;-82
2021/04/30 02:28:46;;;;;;;500.83;316.85;;;;;;;;;;5022696;28;20083;-83
2021/04/30 02:31:15;;;;;;;502.60;311.02;;;;;;;;;;5044511;28;20484;-82
2021/04/30 02:33:42;;;;;;;507.40;317.50;;;;;;;;;;5028330;28;20056;-82
2021/04/30 02:36:08;;;;;;;510.08;324.05;;;;;;;;;;5027713;28;20438;-81
2021/04/30 02:38:34;;;;;;;505.40;320.85;;;;;;;;;;5022339;28;20119;-82
2021/04/30 02:41:00;;;;;;;508.67;317.63;;;;;;;;;;5021605;28;20112;-82
2021/04/30 02:43:27;;;;;;;504.13;315.50;;;;;;;;;;5023536;28;20051;-82
2021/04/30 02:45:53;;;;;;;503.10;315.77;;;;;;;;;;5044089;28;20025;-82
2021/04/30 02:48:34;;;;;;;499.40;318.05;;;;;;;;;;5045895;28;20323;-82
2021/04/30 02:51:02;;;;;;;505.40;314.52;;;;;;;;;;5023931;28;20047;-82
2021/04/30 02:53:28;;;;;;;502.55;320.13;;;;;;;;;;5023810;28;20331;-82
2021/04/30 02:55:54;;;;;;;502.02;310.60;;;;;;;;;;5027483;28;20416;-82
2021/04/30 02:58:20;;;;;;;508.13;314.08;;;;;;;;;;5021168;28;20032;-82
2021/04/30 03:00:46;;;;;;;496.90;306.77;;;;;;;;;;5025738;28;20076;-82
2021/04/30 03:03:13;;;;;;;501.10;305.50;;;;;;;;;;5026565;28;20493;-82
2021/04/30 03:05:39;;;;;;;501.58;308.33;;;;;;;;;;5025966;28;20025;-82
2021/04/30 03:08:05;;;;;;;495.13;300.27;;;;;;;;;;5045973;28;20027;-82
2021/04/30 03:10:31;;;;;;;502.13;313.13;;;;;;;;;;5021687;28;20025;-82
2021/04/30 03:12:57;;;;;;;496.23;303.67;;;;;;;;;;5026233;28;20021;-82
2021/04/30 03:15:23;;;;;;;491.70;304.60;;;;;;;;;;5023933;28;20353;-81
2021/04/30 03:17:49;;;;;;;543.63;305.65;;;;;;;;;;5027552;28;20033;-82
2021/04/30 03:20:16;;;;;;;507.92;312.23;;;;;;;;;;5039350;28;20029;-82
2021/04/30 03:22:42;;;;;;;563.30;310.27;;;;;;;;;;5022912;28;20032;-82
2021/04/30 03:25:09;;;;;;;557.58;305.85;;;;;;;;;;5026731;28;20468;-81
2021/04/30 03:27:35;;;;;;;545.17;309.40;;;;;;;;;;5021549;28;20726;-81
2021/04/30 03:30:01;;;;;;;517.65;309.02;;;;;;;;;;5043320;28;20143;-82
2021/04/30 03:32:27;;;;;;;502.40;309.15;;;;;;;;;;5027259;28;20029;-81
2021/04/30 03:34:53;;;;;;;504.75;305.60;;;;;;;;;;5023853;28;20155;-81
2021/04/30 03:37:20;;;;;;;509.90;311.30;;;;;;;;;;5024924;28;20499;-81
2021/04/30 03:39:46;;;;;;;506.48;314.48;;;;;;;;;;5019890;28;20030;-81
2021/04/30 03:42:12;;;;;;;512.30;312.58;;;;;;;;;;5021101;28;20048;-81
2021/04/30 03:44:38;;;;;;;513.55;315.88;;;;;;;;;;5045606;28;20076;-82
2021/04/30 03:47:04;;;;;;;511.23;308.10;;;;;;;;;;5044620;28;20408;-81
2021/04/30 03:49:30;;;;;;;500.15;309.38;;;;;;;;;;5042060;28;20021;-81
2021/04/30 03:51:56;;;;;;;497.05;306.27;;;;;;;;;;5024962;28;20018;-81
2021/04/30 03:54:22;;;;;;;498.67;305.13;;;;;;;;;;5019478;28;20104;-81
2021/04/30 03:56:48;;;;;;;503.35;304.92;;;;;;;;;;5044872;28;20178;-81
2021/04/30 03:59:15;;;;;;;499.40;307.33;;;;;;;;;;5026771;28;20080;-81
2021/04/30 04:01:41;;;;;;;498.00;302.05;;;;;;;;;;5045022;28;20424;-82
2021/04/30 04:04:07;;;;;;;500.33;308.67;;;;;;;;;;5026871;28;20524;-82
2021/04/30 04:06:33;;;;;;;500.85;306.58;;;;;;;;;;5023239;28;20123;-82
2021/04/30 04:08:59;;;;;;;503.15;312.40;;;;;;;;;;5022717;28;20484;-81
2021/04/30 04:11:25;;;;;;;505.08;306.45;;;;;;;;;;5030472;28;20350;-82
2021/04/30 04:13:51;;;;;;;505.65;309.40;;;;;;;;;;5048388;28;20032;-82
2021/04/30 04:16:17;;;;;;;507.08;308.45;;;;;;;;;;5029374;28;20040;-82
2021/04/30 04:18:43;;;;;;;505.00;310.58;;;;;;;;;;5045470;28;20171;-81
2021/04/30 04:21:09;;;;;;;512.22;319.35;;;;;;;;;;5029530;28;20528;-82
2021/04/30 04:23:35;;;;;;;502.70;313.00;;;;;;;;;;5024079;28;20503;-82
2021/04/30 04:26:01;;;;;;;510.83;308.40;;;;;;;;;;5027990;28;20131;-81
2021/04/30 04:28:27;;;;;;;512.95;317.45;;;;;;;;;;5031064;28;20017;-81
2021/04/30 04:30:55;;;;;;;513.90;317.33;;;;;;;;;;5026290;28;20126;-82
2021/04/30 04:33:21;;;;;;;510.05;317.90;;;;;;;;;;5028614;28;20029;-82
2021/04/30 04:35:47;;;;;;;511.10;318.15;;;;;;;;;;5029003;28;20243;-81
2021/04/30 04:38:13;;;;;;;513.53;318.05;;;;;;;;;;5047724;28;20027;-81
2021/04/30 04:40:39;;;;;;;504.73;313.15;;;;;;;;;;5030719;28;20021;-82
2021/04/30 04:43:05;;;;;;;509.70;317.95;;;;;;;;;;5025794;28;20500;-81
2021/04/30 04:45:31;;;;;;;505.77;308.60;;;;;;;;;;5026681;28;20033;-81
2021/04/30 04:47:57;;;;;;;508.10;311.38;;;;;;;;;;5046293;28;20368;-81
2021/04/30 04:50:23;;;;;;;501.48;311.90;;;;;;;;;;5028983;28;20021;-82
2021/04/30 04:52:49;;;;;;;509.60;315.33;;;;;;;;;;5026682;28;20507;-81
2021/04/30 04:55:17;;;;;;;508.52;311.75;;;;;;;;;;5027854;28;20017;-81
2021/04/30 04:57:44;;;;;;;513.83;317.15;;;;;;;;;;5025298;28;20424;-81
2021/04/30 05:00:10;;;;;;;507.23;309.40;;;;;;;;;;5032089;28;20017;-82
2021/04/30 05:02:37;;;;;;;509.08;314.75;;;;;;;;;;5031272;28;20074;-81
2021/04/30 05:05:03;;;;;;;507.00;316.33;;;;;;;;;;5034063;28;20020;-81
2021/04/30 05:07:29;;;;;;;504.27;319.00;;;;;;;;;;5053990;28;20025;-81
2021/04/30 05:13:00;;;;;;;504.08;308.60;;;;;;;;;;5053204;28;20503;-81
2021/04/30 05:15:26;;;;;;;507.48;318.75;;;;;;;;;;5051743;28;20021;-82
2021/04/30 05:17:52;;;;;;;506.73;313.38;;;;;;;;;;5034623;28;20031;-81
2021/04/30 05:20:18;;;;;;;505.00;313.77;;;;;;;;;;5035715;28;20033;-81
2021/04/30 05:22:45;;;;;;;508.15;318.17;;;;;;;;;;5031539;28;20025;-81
2021/04/30 05:25:23;;;;;;;510.85;324.52;;;;;;;;;;5035502;28;20021;-80
2021/04/30 05:27:49;;;;;;;504.02;311.90;;;;;;;;;;5026034;28;20381;-81
2021/04/30 05:30:16;;;;;;;509.65;322.98;;;;;;;;;;5027268;28;20039;-81
2021/04/30 05:32:42;;;;;;;508.05;320.70;;;;;;;;;;5052901;28;20029;-81
2021/04/30 05:35:08;;;;;;;509.40;320.58;;;;;;;;;;5029933;28;20029;-81
2021/04/30 05:37:34;;;;;;;506.65;320.58;;;;;;;;;;5033856;28;20456;-81
2021/04/30 05:40:00;;;;;;;510.88;321.15;;;;;;;;;;5025660;28;20029;-82
2021/04/30 05:42:27;;;;;;;508.50;314.90;;;;;;;;;;5031184;28;20030;-81
2021/04/30 05:44:53;;;;;;;509.73;310.52;;;;;;;;;;5033719;28;20029;-81
2021/04/30 05:47:20;;;;;;;508.75;316.63;;;;;;;;;;5050820;28;20024;-81
2021/04/30 05:49:46;;;;;;;509.45;321.02;;;;;;;;;;5042981;28;20418;-81
2021/04/30 05:52:12;;;;;;;507.10;316.42;;;;;;;;;;5034221;28;20056;-81
2021/04/30 05:54:38;;;;;;;510.17;323.08;;;;;;;;;;5026477;28;20025;-81
2021/04/30 05:57:10;;;;;;;511.73;314.27;;;;;;;;;;5034253;28;20396;-81
2021/04/30 05:59:36;;;;;;;509.75;314.50;;;;;;;;;;5034398;28;20021;-81
2021/04/30 06:02:02;;;;;;;505.58;316.35;;;;;;;;;;5035050;28;20040;-81
2021/04/30 06:04:28;;;;;;;507.10;313.00;;;;;;;;;;5032164;28;20091;-80
2021/04/30 06:06:54;;;;;;;504.92;316.35;;;;;;;;;;5031879;28;20086;-80
2021/04/30 06:09:20;;;;;;;503.13;315.50;;;;;;;;;;5034359;28;20029;-80
2021/04/30 06:11:48;;;;;;;506.20;323.00;;;;;;;;;;5030150;28;20128;-80
2021/04/30 06:14:14;;;;;;;508.83;326.90;;;;;;;;;;5035004;28;20056;-80
2021/04/30 06:16:40;;;;;;;508.23;319.73;;;;;;;;;;5034602;28;20494;-81
2021/04/30 06:19:06;;;;;;;512.25;323.45;;;;;;;;;;5034380;28;20021;-80
2021/04/30 06:21:32;;;;;;;506.27;322.88;;;;;;;;;;5026936;28;20078;-81
2021/04/30 06:24:01;;;;;;;503.63;317.77;;;;;;;;;;5030423;28;20025;-81
2021/04/30 06:26:27;;;;;;;510.38;326.00;;;;;;;;;;5052070;28;20091;-81
2021/04/30 06:28:53;;;;;;;505.77;323.92;;;;;;;;;;5031846;28;20033;-81
2021/04/30 06:31:19;;;;;;;508.98;327.98;;;;;;;;;;5033262;28;20033;-80
2021/04/30 06:33:45;;;;;;;511.40;322.60;;;;;;;;;;5051233;28;20492;-80
2021/04/30 06:36:11;;;;;;;512.15;331.17;;;;;;;;;;5032767;28;20036;-80
2021/04/30 06:38:37;;;;;;;509.38;328.10;;;;;;;;;;5034305;28;20025;-80
2021/04/30 06:41:04;;;;;;;504.10;321.90;;;;;;;;;;5032508;28;20370;-80
2021/04/30 06:43:30;;;;;;;507.15;317.58;;;;;;;;;;5030557;28;20040;-81
2021/04/30 06:45:56;;;;;;;502.10;319.00;;;;;;;;;;5052188;28;20025;-80
2021/04/30 06:48:23;;;;;;;508.38;328.08;;;;;;;;;;5026189;28;20337;-80
2021/04/30 06:50:49;;;;;;;510.00;321.40;;;;;;;;;;5032907;28;20052;-80
2021/04/30 06:53:15;;;;;;;505.38;325.20;;;;;;;;;;5048717;28;20048;-80
2021/04/30 06:55:41;;;;;;;506.20;318.75;;;;;;;;;;5033331;28;20170;-80
2021/04/30 06:58:07;;;;;;;511.42;326.77;;;;;;;;;;5033567;28;20017;-80
2021/04/30 07:00:33;;;;;;;508.90;317.13;;;;;;;;;;5029109;28;20025;-80
2021/04/30 07:02:59;;;;;;;504.15;322.75;;;;;;;;;;5033979;28;20598;-80
2021/04/30 07:05:25;;;;;;;509.40;326.02;;;;;;;;;;5027280;28;20040;-80
2021/04/30 07:07:51;;;;;;;511.52;330.02;;;;;;;;;;5047937;28;20056;-80
2021/04/30 07:10:18;;;;;;;517.72;338.85;;;;;;;;;;5033609;28;20059;-80
2021/04/30 07:12:44;;;;;;;510.88;331.73;;;;;;;;;;5036024;28;20089;-80
2021/04/30 07:15:10;;;;;;;508.98;323.33;;;;;;;;;;5051582;28;20056;-80
2021/04/30 07:17:36;;;;;;;508.75;326.60;;;;;;;;;;5051000;28;20027;-80
2021/04/30 07:20:02;;;;;;;522.92;335.92;;;;;;;;;;5029261;28;20025;-80
2021/04/30 07:22:28;;;;;;;508.10;333.25;;;;;;;;;;5027422;28;20025;-80
2021/04/30 07:24:54;;;;;;;506.67;327.65;;;;;;;;;;5034682;28;20025;-80
2021/04/30 07:27:20;;;;;;;506.85;328.38;;;;;;;;;;5031095;28;20035;-80
2021/04/30 07:29:47;;;;;;;516.95;332.50;;;;;;;;;;5033929;28;20021;-80
2021/04/30 07:32:13;;;;;;;511.88;332.85;;;;;;;;;;5022343;28;20388;-80
2021/04/30 07:34:40;;;;;;;508.08;331.23;;;;;;;;;;5032237;28;20048;-81
2021/04/30 07:37:06;;;;;;;506.83;323.67;;;;;;;;;;5029934;28;20025;-81
2021/04/30 07:39:33;;;;;;;509.80;331.23;;;;;;;;;;5025044;28;20436;-81
2021/04/30 07:41:59;;;;;;;508.73;333.17;;;;;;;;;;5032507;28;20026;-81
2021/04/30 07:44:25;;;;;;;503.02;327.13;;;;;;;;;;5021829;28;20087;-81
2021/04/30 07:46:51;;;;;;;504.02;326.90;;;;;;;;;;5029652;28;20028;-80
2021/04/30 07:49:17;;;;;;;506.63;327.15;;;;;;;;;;5030667;28;20032;-82
2021/04/30 07:51:43;;;;;;;508.58;335.40;;;;;;;;;;5028872;28;20491;-82
2021/04/30 07:54:11;;;;;;;508.75;326.88;;;;;;;;;;5024781;28;20021;-81
2021/04/30 07:56:38;;;;;;;506.83;329.83;;;;;;;;;;5025542;28;20025;-82
2021/04/30 07:59:04;;;;;;;505.02;320.55;;;;;;;;;;5028670;28;20051;-82
2021/04/30 08:01:30;;;;;;;508.92;332.10;;;;;;;;;;5029815;28;20033;-82
2021/04/30 08:03:56;;;;;;;505.67;331.60;;;;;;;;;;5026821;28;20503;-83
2021/04/30 08:06:22;;;;;;;518.28;336.77;;;;;;;;;;5031320;28;20029;-83
2021/04/30 08:08:48;;;;;;;510.00;343.23;;;;;;;;;;5028617;28;20060;-84
2021/04/30 08:14:18;;;;;;;511.60;337.85;;;;;;;;;;5050121;28;20035;-85
2021/04/30 08:16:44;;;;;;;512.25;348.30;;;;;;;;;;5032112;28;20465;-85
2021/04/30 08:19:11;;;;;;;509.65;348.73;;;;;;;;;;5033902;28;20018;-85
2021/04/30 08:24:41;;;;;;;508.63;339.00;;;;;;;;;;5046267;28;20028;-83
2021/04/30 08:27:07;;;;;;;503.98;341.13;;;;;;;;;;5028054;28;20033;-84
2021/04/30 08:29:33;;;;;;;508.65;343.33;;;;;;;;;;5029836;28;20047;-85
2021/04/30 08:31:59;;;;;;;511.23;348.55;;;;;;;;;;5028730;28;20333;-85
2021/04/30 08:34:25;;;;;;;508.52;345.83;;;;;;;;;;5050917;28;20032;-84
2021/04/30 08:36:51;;;;;;;510.92;354.42;;;;;;;;;;5027998;28;20125;-85
2021/04/30 08:39:17;;;;;;;506.27;345.17;;;;;;;;;;5034424;28;20025;-84
2021/04/30 08:41:43;;;;;;;512.50;351.58;;;;;;;;;;5037216;28;20032;-83
2021/04/30 08:44:10;;;;;;;510.23;351.13;;;;;;;;;;5038019;28;20048;-84
2021/04/30 08:47:07;;;;;;;515.05;356.35;;;;;;;;;;5034165;28;20022;-83
2021/04/30 08:49:34;;;;;;;512.25;346.73;;;;;;;;;;5018007;28;20411;-80
2021/04/30 08:52:00;;;;;;;505.98;334.65;;;;;;;;;;5022236;28;20033;-80
2021/04/30 08:54:26;;;;;;;509.48;341.30;;;;;;;;;;5054503;28;20071;-80
2021/04/30 08:56:57;;;;;;;505.80;342.95;;;;;;;;;;4993420;28;20043;-81
2021/04/30 08:59:26;;;;;;;502.65;335.20;;;;;;;;;;4978166;28;20062;-81
2021/04/30 09:01:52;;;;;;;503.80;332.75;;;;;;;;;;4978106;28;20042;-82
2021/04/30 09:04:18;;;;;;;498.15;325.75;;;;;;;;;;5004777;28;20030;-82
2021/04/30 09:06:45;;;;;;;504.95;335.38;;;;;;;;;;4985229;28;20041;-81
2021/04/30 09:09:15;;;;;;;506.38;335.08;;;;;;;;;;4974650;28;20031;-79
2021/04/30 09:11:43;;;;;;;505.80;330.35;;;;;;;;;;4979821;28;20034;-79
2021/04/30 09:14:23;;;;;;;505.77;329.50;;;;;;;;;;4977558;28;20390;-82
2021/04/30 09:16:58;;;;;;;506.33;328.83;;;;;;;;;;4977746;28;20061;-81
2021/04/30 09:19:51;;;;;;;508.45;331.23;;;;;;;;;;4977716;28;20315;-80
2021/04/30 09:22:21;;;;;;;507.90;337.30;;;;;;;;;;4992485;28;20042;-81
2021/04/30 09:24:56;;;;;;;501.17;332.00;;;;;;;;;;4977276;28;20058;-81
2021/04/30 09:27:30;;;;;;;508.95;336.27;;;;;;;;;;4989497;28;20124;-81
2021/04/30 09:30:13;;;;;;;507.33;340.48;;;;;;;;;;5028384;28;20025;-80
2021/04/30 09:32:59;;;;;;;505.20;339.17;;;;;;;;;;5044965;28;20804;-81
2021/04/30 09:35:26;;;;;;;506.90;337.55;;;;;;;;;;5048215;28;20071;-81
2021/04/30 09:37:52;;;;;;;515.42;341.48;;;;;;;;;;5032427;28;20030;-81
2021/04/30 09:40:19;;;;;;;520.42;344.80;;;;;;;;;;5035750;28;20116;-81
2021/04/30 09:42:46;;;;;;;519.83;336.45;;;;;;;;;;5036133;28;20041;-81
2021/04/30 09:45:12;;;;;;;520.35;340.92;;;;;;;;;;5027277;28;20485;-81
2021/04/30 09:47:38;;;;;;;536.50;344.75;;;;;;;;;;5033515;28;20031;-81
2021/04/30 09:50:09;;;;;;;525.65;343.15;;;;;;;;;;5035505;28;20070;-81
2021/04/30 09:52:36;;;;;;;530.08;347.52;;;;;;;;;;5033240;28;20151;-81
2021/04/30 09:55:03;;;;;;;531.53;344.35;;;;;;;;;;5037906;28;20603;-81
2021/04/30 09:57:30;;;;;;;522.10;350.05;;;;;;;;;;5027793;28;20020;-83
2021/04/30 10:00:14;;;;;;;528.58;349.83;;;;;;;;;;5017752;28;20023;-82
2021/04/30 10:02:41;;;;;;;521.60;339.42;;;;;;;;;;5035900;28;20032;-80
2021/04/30 10:05:14;;;;;;;520.53;343.13;;;;;;;;;;5036254;28;20021;-81
2021/04/30 10:07:42;;;;;;;527.30;346.42;;;;;;;;;;5036862;28;20028;-81
2021/04/30 10:10:09;;;;;;;520.47;339.15;;;;;;;;;;5045848;28;20036;-81
2021/04/30 10:12:36;;;;;;;527.85;346.15;;;;;;;;;;5038128;28;20017;-80
2021/04/30 10:15:03;;;;;;;530.03;349.17;;;;;;;;;;5046361;28;20029;-80
2021/04/30 10:17:30;;;;;;;524.03;342.88;;;;;;;;;;5036342;28;20187;-80
2021/04/30 10:19:56;;;;;;;523.67;341.30;;;;;;;;;;5052482;28;20021;-80
2021/04/30 10:22:24;;;;;;;522.28;342.80;;;;;;;;;;5052422;28;20020;-80
2021/04/30 10:24:54;;;;;;;522.75;338.65;;;;;;;;;;5040632;28;20026;-80
2021/04/30 10:27:23;;;;;;;524.65;347.85;;;;;;;;;;5044604;28;20024;-79
2021/04/30 10:29:59;;;;;;;525.17;345.60;;;;;;;;;;5035629;28;20028;-79
2021/04/30 10:32:27;;;;;;;527.20;350.10;;;;;;;;;;5035465;28;20715;-80
2021/04/30 10:34:54;;;;;;;527.05;356.00;;;;;;;;;;5053248;28;20070;-80
2021/04/30 10:37:23;;;;;;;523.97;359.83;;;;;;;;;;5035685;28;20071;-80
2021/04/30 10:39:56;;;;;;;535.42;369.58;;;;;;;;;;5035120;28;20017;-80
2021/04/30 10:42:26;;;;;;;541.78;374.75;;;;;;;;;;5047299;28;20481;-80
2021/04/30 10:44:58;;;;;;;542.90;379.90;;;;;;;;;;5031789;28;20034;-80
2021/04/30 10:47:24;;;;;;;542.00;373.45;;;;;;;;;;5027659;28;20032;-79
2021/04/30 10:50:13;;;;;;;540.38;373.67;;;;;;;;;;5049506;28;20055;-78
2021/04/30 10:52:40;;;;;;;603.63;416.63;;;;;;;;;;5019577;28;20048;-79
2021/04/30 10:55:08;;;;;;;537.55;372.08;;;;;;;;;;5043471;28;20018;-79
2021/04/30 10:57:54;;;;;;;533.63;364.85;;;;;;;;;;5031127;28;20025;-79
2021/04/30 11:00:25;;;;;;;538.42;376.55;;;;;;;;;;5050041;28;20098;-79
2021/04/30 11:03:11;;;;;;;533.95;362.63;;;;;;;;;;5042777;28;20623;-79
2021/04/30 11:05:50;;;;;;;595.83;398.80;;;;;;;;;;5030383;28;20106;-79
2021/04/30 11:08:16;;;;;;;904.83;582.87;;;;;;;;;;5018098;28;20033;-79
2021/04/30 11:10:43;;;;;;;565.95;375.85;;;;;;;;;;5052762;28;20488;-79
2021/04/30 11:13:13;;;;;;;816.50;526.58;;;;;;;;;;5034959;28;20119;-79
2021/04/30 11:15:46;;;;;;;570.15;380.58;;;;;;;;;;5034878;28;20102;-80
2021/04/30 11:18:12;;;;;;;551.53;369.80;;;;;;;;;;5035473;28;20033;-79
2021/04/30 11:20:40;;;;;;;565.38;368.45;;;;;;;;;;5052244;28;20036;-78
2021/04/30 11:23:13;;;;;;;593.67;379.55;;;;;;;;;;5033030;28;20029;-78
2021/04/30 11:26:01;;;;;;;606.33;374.80;;;;;;;;;;5035005;28;20033;-82
2021/04/30 11:28:30;;;;;;;549.75;334.38;;;;;;;;;;5035056;28;20045;-82
2021/04/30 11:31:06;;;;;;;682.35;414.75;;;;;;;;;;5035540;28;20138;-83
2021/04/30 11:33:33;;;;;;;522.97;310.13;;;;;;;;;;5036005;28;20025;-84
2021/04/30 11:36:00;;;;;;;660.03;379.48;;;;;;;;;;5052754;28;20465;-84
2021/04/30 11:38:35;;;;;;;567.70;345.27;;;;;;;;;;5032864;28;20021;-83
2021/04/30 11:41:01;;;;;;;585.67;343.92;;;;;;;;;;5033008;28;20476;-83
2021/04/30 11:43:28;;;;;;;554.53;325.45;;;;;;;;;;5030257;28;20273;-83
2021/04/30 11:45:54;;;;;;;554.67;327.63;;;;;;;;;;5033377;28;20037;-83
2021/04/30 11:48:24;;;;;;;618.13;374.25;;;;;;;;;;5034683;28;20514;-84
2021/04/30 11:51:05;;;;;;;551.72;341.35;;;;;;;;;;5034547;28;20045;-83
2021/04/30 11:53:32;;;;;;;578.90;347.75;;;;;;;;;;5033000;28;20029;-82
2021/04/30 11:55:58;;;;;;;557.00;339.50;;;;;;;;;;5034671;28;20029;-81
2021/04/30 11:58:36;;;;;;;546.05;337.98;;;;;;;;;;5034455;28;20108;-78
2021/04/30 12:01:03;;;;;;;559.65;340.75;;;;;;;;;;5034567;28;20083;-81
2021/04/30 12:03:41;;;;;;;536.13;339.00;;;;;;;;;;5034558;28;20032;-81
2021/04/30 12:06:13;;;;;;;561.20;356.13;;;;;;;;;;5013253;28;20033;-82
2021/04/30 12:08:40;;;;;;;596.08;398.85;;;;;;;;;;5012237;28;20025;-82
2021/04/30 12:11:06;;;;;;;556.50;384.17;;;;;;;;;;5012540;28;20022;-84
2021/04/30 12:13:39;;;;;;;564.88;379.05;;;;;;;;;;5025296;28;20108;-84
2021/04/30 12:16:14;;;;;;;590.40;402.85;;;;;;;;;;5011750;28;20208;-84
2021/04/30 12:18:40;;;;;;;550.67;359.52;;;;;;;;;;5017747;28;20021;-85
2021/04/30 12:21:06;;;;;;;546.80;366.77;;;;;;;;;;5049204;28;20100;-83
2021/04/30 12:23:32;;;;;;;532.60;363.40;;;;;;;;;;5047758;28;20078;-82
2021/04/30 12:25:59;;;;;;;541.88;363.58;;;;;;;;;;5048905;28;20032;-81
2021/04/30 12:28:30;;;;;;;544.25;362.00;;;;;;;;;;5030904;28;20029;-81
2021/04/30 12:30:57;;;;;;;549.47;369.77;;;;;;;;;;5031612;28;20466;-81
2021/04/30 12:33:23;;;;;;;569.08;375.10;;;;;;;;;;5034408;28;20083;-81
2021/04/30 12:35:50;;;;;;;559.22;370.75;;;;;;;;;;5035154;28;20021;-81
2021/04/30 12:38:17;;;;;;;711.17;480.42;;;;;;;;;;5034611;28;20095;-81
2021/04/30 12:40:43;;;;;;;542.63;357.70;;;;;;;;;;5034477;28;20024;-82
2021/04/30 12:43:09;;;;;;;560.00;366.70;;;;;;;;;;5051693;28;20041;-81
2021/04/30 12:45:35;;;;;;;562.50;370.40;;;;;;;;;;5034607;28;20092;-81
2021/04/30 12:48:01;;;;;;;560.38;374.70;;;;;;;;;;5030918;28;20030;-82
2021/04/30 12:50:27;;;;;;;555.03;369.65;;;;;;;;;;5032396;28;20040;-82
2021/04/30 12:52:54;;;;;;;533.30;351.30;;;;;;;;;;5027767;28;20070;-81
2021/04/30 12:55:21;;;;;;;546.15;359.65;;;;;;;;;;5014886;28;20028;-81
2021/04/30 12:57:58;;;;;;;516.08;345.88;;;;;;;;;;5014606;28;20381;-81
2021/04/30 13:00:24;;;;;;;517.35;345.48;;;;;;;;;;5032367;28;20112;-83
2021/04/30 13:02:49;;;;;;;531.45;358.38;;;;;;;;;;5033703;28;20587;-82
2021/04/30 13:05:16;;;;;;;527.80;346.60;;;;;;;;;;5033566;28;20139;-82
2021/04/30 13:07:42;;;;;;;523.13;347.45;;;;;;;;;;5034063;28;20361;-82
2021/04/30 13:10:08;;;;;;;527.78;350.63;;;;;;;;;;5034847;28;20123;-82
2021/04/30 13:12:35;;;;;;;515.30;343.40;;;;;;;;;;5033780;28;20024;-83
2021/04/30 13:15:01;;;;;;;527.60;348.60;;;;;;;;;;5051684;28;20029;-82
2021/04/30 13:17:29;;;;;;;522.47;335.77;;;;;;;;;;5034214;28;20017;-82
2021/04/30 13:20:14;;;;;;;528.25;342.60;;;;;;;;;;5030380;28;20083;-82
2021/04/30 13:22:40;;;;;;;525.25;343.42;;;;;;;;;;5020223;28;20438;-82
2021/04/30 13:25:06;;;;;;;511.05;338.08;;;;;;;;;;5033789;28;20498;-82
2021/04/30 13:27:48;;;;;;;538.92;357.77;;;;;;;;;;5051510;28;20481;-83
2021/04/30 13:30:14;;;;;;;533.72;350.77;;;;;;;;;;5051607;28;20381;-82
2021/04/30 13:32:40;;;;;;;537.35;355.05;;;;;;;;;;5030127;28;20021;-83
2021/04/30 13:35:07;;;;;;;540.80;353.48;;;;;;;;;;5033805;28;20388;-83
2021/04/30 13:37:38;;;;;;;523.17;350.15;;;;;;;;;;5029746;28;20009;-82
2021/04/30 13:40:05;;;;;;;517.67;345.52;;;;;;;;;;5013849;28;20650;-82
2021/04/30 13:42:31;;;;;;;533.78;353.92;;;;;;;;;;5012673;28;20025;-82
2021/04/30 13:44:59;;;;;;;538.20;353.17;;;;;;;;;;5048822;28;20087;-82
2021/04/30 13:47:35;;;;;;;537.35;362.02;;;;;;;;;;5033207;28;20060;-82
2021/04/30 13:50:02;;;;;;;557.67;364.75;;;;;;;;;;5033313;28;20480;-82
2021/04/30 13:52:30;;;;;;;584.00;392.15;;;;;;;;;;5032161;28;20060;-82
2021/04/30 13:54:56;;;;;;;527.33;358.83;;;;;;;;;;5032101;28;20558;-82
2021/04/30 13:57:22;;;;;;;529.85;354.23;;;;;;;;;;5033503;28;20033;-82
2021/04/30 13:59:49;;;;;;;660.97;438.10;;;;;;;;;;5033151;28;20033;-82
2021/04/30 14:02:16;;;;;;;557.45;367.02;;;;;;;;;;5051190;28;20048;-82
2021/04/30 14:04:43;;;;;;;638.65;428.60;;;;;;;;;;5032488;28;20053;-82